Terminal Aerodrome Forecast
Issued by NWS

Home | Current Version | Previous Version | Text Only | Print | Product List | Glossary On
Versions: 1 2 3 4 5 6 7 8 9 10 11 12
000
FTUS44 KOUN 241133
TAFGAG
TAF
KGAG 241133Z 2412/2512 19008KT P6SM SCT120 BKN250
     FM241600 21012KT P6SM FEW120 SCT250
     FM242200 16010KT P6SM SCT120 BKN250=

USA.gov is the U.S. government's official web portal to all federal, state and local government web resources and services.